sensor_id;sensor_type;location;lat;lon;timestamp;P1;durP1;ratioP1;P2;durP2;ratioP2
80183;SDS011;69682;52.138;5.440;2024-01-30T00:00:45;10.48;;;6.82;;
80183;SDS011;69682;52.138;5.440;2024-01-30T00:03:12;11.27;;;6.82;;
80183;SDS011;69682;52.138;5.440;2024-01-30T00:05:38;10.45;;;5.22;;
80183;SDS011;69682;52.138;5.440;2024-01-30T00:08:05;9.50;;;5.28;;
80183;SDS011;69682;52.138;5.440;2024-01-30T00:10:32;10.20;;;5.65;;
80183;SDS011;69682;52.138;5.440;2024-01-30T00:12:58;12.18;;;6.70;;
80183;SDS011;69682;52.138;5.440;2024-01-30T00:15:25;11.38;;;6.65;;
80183;SDS011;69682;52.138;5.440;2024-01-30T00:17:51;8.48;;;5.07;;
80183;SDS011;69682;52.138;5.440;2024-01-30T00:20:20;12.82;;;7.07;;
80183;SDS011;69682;52.138;5.440;2024-01-30T00:22:47;11.25;;;7.28;;
80183;SDS011;69682;52.138;5.440;2024-01-30T00:25:13;10.00;;;5.90;;
80183;SDS011;69682;52.138;5.440;2024-01-30T00:27:40;12.52;;;7.15;;
80183;SDS011;69682;52.138;5.440;2024-01-30T00:30:07;11.75;;;7.90;;
80183;SDS011;69682;52.138;5.440;2024-01-30T00:32:35;15.13;;;6.85;;
80183;SDS011;69682;52.138;5.440;2024-01-30T00:35:01;11.00;;;6.65;;
80183;SDS011;69682;52.138;5.440;2024-01-30T00:37:28;12.48;;;6.38;;
80183;SDS011;69682;52.138;5.440;2024-01-30T00:39:55;14.35;;;6.38;;
80183;SDS011;69682;52.138;5.440;2024-01-30T00:42:21;13.25;;;6.40;;
80183;SDS011;69682;52.138;5.440;2024-01-30T00:44:49;12.98;;;6.82;;
80183;SDS011;69682;52.138;5.440;2024-01-30T00:47:16;12.30;;;6.97;;
80183;SDS011;69682;52.138;5.440;2024-01-30T00:49:43;16.77;;;8.07;;
80183;SDS011;69682;52.138;5.440;2024-01-30T00:52:09;11.55;;;6.60;;
80183;SDS011;69682;52.138;5.440;2024-01-30T00:54:36;11.88;;;6.45;;
80183;SDS011;69682;52.138;5.440;2024-01-30T00:57:03;10.82;;;6.32;;
80183;SDS011;69682;52.138;5.440;2024-01-30T00:59:30;12.38;;;5.90;;
80183;SDS011;69682;52.138;5.440;2024-01-30T01:01:56;10.30;;;5.85;;
80183;SDS011;69682;52.138;5.440;2024-01-30T01:04:23;12.07;;;6.80;;
80183;SDS011;69682;52.138;5.440;2024-01-30T01:06:50;13.63;;;6.75;;
80183;SDS011;69682;52.138;5.440;2024-01-30T01:09:16;11.43;;;6.05;;
80183;SDS011;69682;52.138;5.440;2024-01-30T01:11:43;9.90;;;5.80;;
80183;SDS011;69682;52.138;5.440;2024-01-30T01:14:10;11.27;;;6.22;;
80183;SDS011;69682;52.138;5.440;2024-01-30T01:16:36;13.80;;;5.88;;
80183;SDS011;69682;52.138;5.440;2024-01-30T01:19:03;9.77;;;6.10;;
80183;SDS011;69682;52.138;5.440;2024-01-30T01:21:30;11.05;;;6.75;;
80183;SDS011;69682;52.138;5.440;2024-01-30T01:23:57;9.95;;;6.55;;
80183;SDS011;69682;52.138;5.440;2024-01-30T01:26:24;10.27;;;6.32;;
80183;SDS011;69682;52.138;5.440;2024-01-30T01:28:50;10.77;;;5.95;;
80183;SDS011;69682;52.138;5.440;2024-01-30T01:31:17;8.77;;;5.93;;
80183;SDS011;69682;52.138;5.440;2024-01-30T01:33:44;11.65;;;6.28;;
80183;SDS011;69682;52.138;5.440;2024-01-30T01:36:13;15.13;;;6.53;;
80183;SDS011;69682;52.138;5.440;2024-01-30T01:38:39;9.18;;;6.32;;
80183;SDS011;69682;52.138;5.440;2024-01-30T01:41:06;8.20;;;5.95;;
80183;SDS011;69682;52.138;5.440;2024-01-30T01:43:33;9.55;;;6.28;;
80183;SDS011;69682;52.138;5.440;2024-01-30T01:45:59;8.52;;;5.55;;
80183;SDS011;69682;52.138;5.440;2024-01-30T01:48:26;11.18;;;5.65;;
80183;SDS011;69682;52.138;5.440;2024-01-30T01:50:53;10.07;;;5.38;;
80183;SDS011;69682;52.138;5.440;2024-01-30T01:53:20;9.57;;;6.18;;
80183;SDS011;69682;52.138;5.440;2024-01-30T01:55:47;9.43;;;5.43;;
80183;SDS011;69682;52.138;5.440;2024-01-30T01:58:14;10.40;;;5.30;;
80183;SDS011;69682;52.138;5.440;2024-01-30T02:00:41;10.30;;;7.15;;
80183;SDS011;69682;52.138;5.440;2024-01-30T02:03:10;11.05;;;6.22;;
80183;SDS011;69682;52.138;5.440;2024-01-30T02:05:38;10.10;;;5.78;;
80183;SDS011;69682;52.138;5.440;2024-01-30T02:08:06;10.88;;;6.45;;
80183;SDS011;69682;52.138;5.440;2024-01-30T02:10:33;9.90;;;5.03;;
80183;SDS011;69682;52.138;5.440;2024-01-30T02:13:00;8.95;;;6.00;;
80183;SDS011;69682;52.138;5.440;2024-01-30T02:15:27;11.52;;;6.57;;
80183;SDS011;69682;52.138;5.440;2024-01-30T02:17:55;9.05;;;5.20;;
80183;SDS011;69682;52.138;5.440;2024-01-30T02:20:22;9.82;;;5.63;;
80183;SDS011;69682;52.138;5.440;2024-01-30T02:22:52;8.68;;;5.15;;
80183;SDS011;69682;52.138;5.440;2024-01-30T02:25:20;9.65;;;5.90;;
80183;SDS011;69682;52.138;5.440;2024-01-30T02:27:47;10.88;;;5.75;;
80183;SDS011;69682;52.138;5.440;2024-01-30T02:30:13;10.18;;;4.97;;
80183;SDS011;69682;52.138;5.440;2024-01-30T02:32:40;9.00;;;5.68;;
80183;SDS011;69682;52.138;5.440;2024-01-30T02:35:06;8.77;;;5.22;;
80183;SDS011;69682;52.138;5.440;2024-01-30T02:37:33;11.00;;;5.97;;
80183;SDS011;69682;52.138;5.440;2024-01-30T02:39:59;10.43;;;5.68;;
80183;SDS011;69682;52.138;5.440;2024-01-30T02:42:26;9.57;;;5.50;;
80183;SDS011;69682;52.138;5.440;2024-01-30T02:44:53;8.85;;;5.50;;
80183;SDS011;69682;52.138;5.440;2024-01-30T02:47:19;10.98;;;4.80;;
80183;SDS011;69682;52.138;5.440;2024-01-30T02:49:46;12.95;;;5.82;;
80183;SDS011;69682;52.138;5.440;2024-01-30T02:52:13;9.38;;;6.15;;
80183;SDS011;69682;52.138;5.440;2024-01-30T02:54:39;11.95;;;6.47;;
80183;SDS011;69682;52.138;5.440;2024-01-30T02:57:06;10.43;;;5.00;;
80183;SDS011;69682;52.138;5.440;2024-01-30T02:59:32;8.88;;;5.28;;
80183;SDS011;69682;52.138;5.440;2024-01-30T03:02:02;10.43;;;5.70;;
80183;SDS011;69682;52.138;5.440;2024-01-30T03:04:29;7.72;;;5.15;;
80183;SDS011;69682;52.138;5.440;2024-01-30T03:06:56;9.95;;;6.60;;
80183;SDS011;69682;52.138;5.440;2024-01-30T03:09:23;11.30;;;6.50;;
80183;SDS011;69682;52.138;5.440;2024-01-30T03:11:50;10.65;;;7.07;;
80183;SDS011;69682;52.138;5.440;2024-01-30T03:14:16;12.98;;;6.90;;
80183;SDS011;69682;52.138;5.440;2024-01-30T03:16:43;12.43;;;6.55;;
80183;SDS011;69682;52.138;5.440;2024-01-30T03:19:10;11.70;;;7.53;;
80183;SDS011;69682;52.138;5.440;2024-01-30T03:21:36;13.27;;;7.38;;
80183;SDS011;69682;52.138;5.440;2024-01-30T03:24:03;13.27;;;6.85;;
80183;SDS011;69682;52.138;5.440;2024-01-30T03:26:29;14.73;;;8.23;;
80183;SDS011;69682;52.138;5.440;2024-01-30T03:28:56;12.45;;;8.38;;
80183;SDS011;69682;52.138;5.440;2024-01-30T03:31:23;14.38;;;7.82;;
80183;SDS011;69682;52.138;5.440;2024-01-30T03:33:50;13.10;;;7.57;;
80183;SDS011;69682;52.138;5.440;2024-01-30T03:36:17;14.30;;;8.60;;
80183;SDS011;69682;52.138;5.440;2024-01-30T03:38:43;14.75;;;8.77;;
80183;SDS011;69682;52.138;5.440;2024-01-30T03:41:10;17.00;;;8.52;;
80183;SDS011;69682;52.138;5.440;2024-01-30T03:43:36;11.13;;;7.25;;
80183;SDS011;69682;52.138;5.440;2024-01-30T03:46:03;15.23;;;8.27;;
80183;SDS011;69682;52.138;5.440;2024-01-30T03:48:30;20.10;;;7.82;;
80183;SDS011;69682;52.138;5.440;2024-01-30T03:50:57;11.02;;;6.80;;
80183;SDS011;69682;52.138;5.440;2024-01-30T03:53:23;8.70;;;6.05;;
80183;SDS011;69682;52.138;5.440;2024-01-30T03:55:50;10.38;;;6.78;;
80183;SDS011;69682;52.138;5.440;2024-01-30T03:58:16;12.07;;;5.90;;
80183;SDS011;69682;52.138;5.440;2024-01-30T04:00:43;9.55;;;5.53;;
80183;SDS011;69682;52.138;5.440;2024-01-30T04:03:11;10.65;;;6.13;;
80183;SDS011;69682;52.138;5.440;2024-01-30T04:05:37;10.93;;;6.03;;
80183;SDS011;69682;52.138;5.440;2024-01-30T04:08:04;8.02;;;5.13;;
80183;SDS011;69682;52.138;5.440;2024-01-30T04:10:31;9.52;;;6.57;;
80183;SDS011;69682;52.138;5.440;2024-01-30T04:12:57;9.43;;;5.50;;
80183;SDS011;69682;52.138;5.440;2024-01-30T04:15:24;7.07;;;5.00;;
80183;SDS011;69682;52.138;5.440;2024-01-30T04:17:51;10.27;;;5.13;;
80183;SDS011;69682;52.138;5.440;2024-01-30T04:20:18;8.25;;;4.97;;
80183;SDS011;69682;52.138;5.440;2024-01-30T04:22:45;7.80;;;5.00;;
80183;SDS011;69682;52.138;5.440;2024-01-30T04:25:12;6.85;;;3.85;;
80183;SDS011;69682;52.138;5.440;2024-01-30T04:27:39;10.55;;;5.43;;
80183;SDS011;69682;52.138;5.440;2024-01-30T04:30:06;8.02;;;4.90;;
80183;SDS011;69682;52.138;5.440;2024-01-30T04:32:34;7.03;;;4.90;;
80183;SDS011;69682;52.138;5.440;2024-01-30T04:35:01;8.18;;;5.10;;
80183;SDS011;69682;52.138;5.440;2024-01-30T04:37:33;7.35;;;4.78;;
80183;SDS011;69682;52.138;5.440;2024-01-30T04:39:59;7.72;;;4.55;;
80183;SDS011;69682;52.138;5.440;2024-01-30T04:42:26;6.88;;;3.28;;
80183;SDS011;69682;52.138;5.440;2024-01-30T04:44:52;7.75;;;5.20;;
80183;SDS011;69682;52.138;5.440;2024-01-30T04:47:19;7.07;;;3.55;;
80183;SDS011;69682;52.138;5.440;2024-01-30T04:49:46;10.73;;;5.25;;
80183;SDS011;69682;52.138;5.440;2024-01-30T04:52:12;8.52;;;4.35;;
80183;SDS011;69682;52.138;5.440;2024-01-30T04:54:39;5.60;;;3.58;;
80183;SDS011;69682;52.138;5.440;2024-01-30T04:57:06;7.88;;;4.30;;
80183;SDS011;69682;52.138;5.440;2024-01-30T04:59:38;8.95;;;4.97;;
80183;SDS011;69682;52.138;5.440;2024-01-30T05:02:06;6.68;;;4.50;;
80183;SDS011;69682;52.138;5.440;2024-01-30T05:04:33;10.60;;;4.75;;
80183;SDS011;69682;52.138;5.440;2024-01-30T05:07:00;7.85;;;4.18;;
80183;SDS011;69682;52.138;5.440;2024-01-30T05:09:26;8.52;;;5.20;;
80183;SDS011;69682;52.138;5.440;2024-01-30T05:11:53;8.57;;;4.68;;
80183;SDS011;69682;52.138;5.440;2024-01-30T05:14:19;7.55;;;4.50;;
80183;SDS011;69682;52.138;5.440;2024-01-30T05:16:46;7.63;;;5.00;;
80183;SDS011;69682;52.138;5.440;2024-01-30T05:19:13;7.35;;;4.55;;
80183;SDS011;69682;52.138;5.440;2024-01-30T05:21:41;8.07;;;4.55;;
80183;SDS011;69682;52.138;5.440;2024-01-30T05:24:07;6.65;;;3.97;;
80183;SDS011;69682;52.138;5.440;2024-01-30T05:26:36;7.65;;;4.25;;
80183;SDS011;69682;52.138;5.440;2024-01-30T05:29:02;8.82;;;4.78;;
80183;SDS011;69682;52.138;5.440;2024-01-30T05:31:29;4.72;;;3.25;;
80183;SDS011;69682;52.138;5.440;2024-01-30T05:33:56;8.00;;;4.32;;
80183;SDS011;69682;52.138;5.440;2024-01-30T05:36:23;7.13;;;5.00;;
80183;SDS011;69682;52.138;5.440;2024-01-30T05:38:49;13.68;;;4.82;;
80183;SDS011;69682;52.138;5.440;2024-01-30T05:41:16;8.32;;;5.03;;
80183;SDS011;69682;52.138;5.440;2024-01-30T05:43:43;7.95;;;5.85;;
80183;SDS011;69682;52.138;5.440;2024-01-30T05:46:09;7.22;;;4.57;;
80183;SDS011;69682;52.138;5.440;2024-01-30T05:48:36;6.68;;;5.00;;
80183;SDS011;69682;52.138;5.440;2024-01-30T05:51:02;7.25;;;4.30;;
80183;SDS011;69682;52.138;5.440;2024-01-30T05:53:30;7.10;;;4.45;;
80183;SDS011;69682;52.138;5.440;2024-01-30T05:55:57;9.95;;;4.75;;
80183;SDS011;69682;52.138;5.440;2024-01-30T05:58:23;8.57;;;5.57;;
80183;SDS011;69682;52.138;5.440;2024-01-30T06:00:50;3.08;;;2.53;;
80183;SDS011;69682;52.138;5.440;2024-01-30T06:03:17;8.52;;;5.10;;
80183;SDS011;69682;52.138;5.440;2024-01-30T06:05:43;9.25;;;4.85;;
80183;SDS011;69682;52.138;5.440;2024-01-30T06:08:10;7.57;;;4.90;;
80183;SDS011;69682;52.138;5.440;2024-01-30T06:10:36;8.27;;;4.78;;
80183;SDS011;69682;52.138;5.440;2024-01-30T06:13:03;7.18;;;4.90;;
80183;SDS011;69682;52.138;5.440;2024-01-30T06:15:30;8.48;;;5.22;;
80183;SDS011;69682;52.138;5.440;2024-01-30T06:17:56;6.57;;;4.30;;
80183;SDS011;69682;52.138;5.440;2024-01-30T06:20:23;6.68;;;4.20;;
80183;SDS011;69682;52.138;5.440;2024-01-30T06:22:50;7.70;;;4.30;;
80183;SDS011;69682;52.138;5.440;2024-01-30T06:25:16;8.05;;;4.68;;
80183;SDS011;69682;52.138;5.440;2024-01-30T06:27:43;6.90;;;3.45;;
80183;SDS011;69682;52.138;5.440;2024-01-30T06:30:10;6.57;;;3.85;;
80183;SDS011;69682;52.138;5.440;2024-01-30T06:32:37;6.47;;;4.15;;
80183;SDS011;69682;52.138;5.440;2024-01-30T06:35:04;12.60;;;4.65;;
80183;SDS011;69682;52.138;5.440;2024-01-30T06:37:32;9.15;;;4.22;;
80183;SDS011;69682;52.138;5.440;2024-01-30T06:39:58;7.32;;;4.53;;
80183;SDS011;69682;52.138;5.440;2024-01-30T06:42:25;7.20;;;4.72;;
80183;SDS011;69682;52.138;5.440;2024-01-30T06:44:52;9.63;;;4.88;;
80183;SDS011;69682;52.138;5.440;2024-01-30T06:47:18;8.55;;;5.40;;
80183;SDS011;69682;52.138;5.440;2024-01-30T06:49:45;9.65;;;5.30;;
80183;SDS011;69682;52.138;5.440;2024-01-30T06:52:12;7.55;;;5.00;;
80183;SDS011;69682;52.138;5.440;2024-01-30T06:54:38;7.85;;;4.85;;
80183;SDS011;69682;52.138;5.440;2024-01-30T06:57:06;10.30;;;4.70;;
80183;SDS011;69682;52.138;5.440;2024-01-30T06:59:38;7.65;;;3.78;;
80183;SDS011;69682;52.138;5.440;2024-01-30T07:02:09;8.00;;;4.70;;
80183;SDS011;69682;52.138;5.440;2024-01-30T07:04:36;8.45;;;4.97;;
80183;SDS011;69682;52.138;5.440;2024-01-30T07:07:05;8.73;;;5.43;;
80183;SDS011;69682;52.138;5.440;2024-01-30T07:09:32;9.90;;;5.28;;
80183;SDS011;69682;52.138;5.440;2024-01-30T07:12:00;8.43;;;4.45;;
80183;SDS011;69682;52.138;5.440;2024-01-30T07:14:27;5.97;;;4.40;;
80183;SDS011;69682;52.138;5.440;2024-01-30T07:16:53;8.35;;;4.70;;
80183;SDS011;69682;52.138;5.440;2024-01-30T07:19:20;12.20;;;4.40;;
80183;SDS011;69682;52.138;5.440;2024-01-30T07:21:46;9.23;;;4.45;;
80183;SDS011;69682;52.138;5.440;2024-01-30T07:24:13;9.45;;;4.55;;
80183;SDS011;69682;52.138;5.440;2024-01-30T07:26:40;6.90;;;4.53;;
80183;SDS011;69682;52.138;5.440;2024-01-30T07:29:07;8.80;;;5.30;;
80183;SDS011;69682;52.138;5.440;2024-01-30T07:31:34;12.02;;;4.45;;
80183;SDS011;69682;52.138;5.440;2024-01-30T07:34:00;7.05;;;4.57;;
80183;SDS011;69682;52.138;5.440;2024-01-30T07:36:27;7.78;;;4.65;;
80183;SDS011;69682;52.138;5.440;2024-01-30T07:38:53;4.90;;;2.90;;
80183;SDS011;69682;52.138;5.440;2024-01-30T07:41:21;9.32;;;4.28;;
80183;SDS011;69682;52.138;5.440;2024-01-30T07:43:47;12.40;;;5.72;;
80183;SDS011;69682;52.138;5.440;2024-01-30T07:46:14;9.15;;;5.07;;
80183;SDS011;69682;52.138;5.440;2024-01-30T07:48:40;7.05;;;4.57;;
80183;SDS011;69682;52.138;5.440;2024-01-30T07:51:07;8.00;;;4.22;;
80183;SDS011;69682;52.138;5.440;2024-01-30T07:53:33;11.32;;;5.28;;
80183;SDS011;69682;52.138;5.440;2024-01-30T07:56:00;9.55;;;5.32;;
80183;SDS011;69682;52.138;5.440;2024-01-30T07:58:27;8.35;;;3.97;;
80183;SDS011;69682;52.138;5.440;2024-01-30T08:00:54;6.38;;;3.80;;
80183;SDS011;69682;52.138;5.440;2024-01-30T08:03:23;7.03;;;5.07;;
80183;SDS011;69682;52.138;5.440;2024-01-30T08:05:50;7.95;;;4.40;;
80183;SDS011;69682;52.138;5.440;2024-01-30T08:08:17;9.38;;;5.22;;
80183;SDS011;69682;52.138;5.440;2024-01-30T08:10:43;8.95;;;4.55;;
80183;SDS011;69682;52.138;5.440;2024-01-30T08:13:10;9.88;;;4.68;;
80183;SDS011;69682;52.138;5.440;2024-01-30T08:15:37;10.25;;;6.35;;
80183;SDS011;69682;52.138;5.440;2024-01-30T08:18:03;7.80;;;4.75;;
80183;SDS011;69682;52.138;5.440;2024-01-30T08:22:58;6.03;;;4.35;;
80183;SDS011;69682;52.138;5.440;2024-01-30T08:25:26;8.10;;;4.30;;
80183;SDS011;69682;52.138;5.440;2024-01-30T08:27:53;13.55;;;5.22;;
80183;SDS011;69682;52.138;5.440;2024-01-30T08:30:20;10.15;;;4.03;;
80183;SDS011;69682;52.138;5.440;2024-01-30T08:32:47;7.28;;;4.55;;
80183;SDS011;69682;52.138;5.440;2024-01-30T08:35:13;9.20;;;4.68;;
80183;SDS011;69682;52.138;5.440;2024-01-30T08:37:42;8.38;;;4.43;;
80183;SDS011;69682;52.138;5.440;2024-01-30T08:40:09;11.85;;;4.88;;
80183;SDS011;69682;52.138;5.440;2024-01-30T08:42:36;13.38;;;5.28;;
80183;SDS011;69682;52.138;5.440;2024-01-30T08:45:03;8.30;;;4.45;;
80183;SDS011;69682;52.138;5.440;2024-01-30T08:47:31;11.13;;;5.30;;
80183;SDS011;69682;52.138;5.440;2024-01-30T08:49:58;9.55;;;4.63;;
80183;SDS011;69682;52.138;5.440;2024-01-30T08:52:24;11.02;;;4.40;;
80183;SDS011;69682;52.138;5.440;2024-01-30T08:54:51;7.80;;;4.75;;
80183;SDS011;69682;52.138;5.440;2024-01-30T08:57:17;9.18;;;5.15;;
80183;SDS011;69682;52.138;5.440;2024-01-30T08:59:44;6.93;;;4.03;;
80183;SDS011;69682;52.138;5.440;2024-01-30T09:02:13;11.27;;;4.53;;
80183;SDS011;69682;52.138;5.440;2024-01-30T09:04:42;11.18;;;4.50;;
80183;SDS011;69682;52.138;5.440;2024-01-30T09:07:09;13.52;;;5.32;;
80183;SDS011;69682;52.138;5.440;2024-01-30T09:09:40;11.18;;;5.10;;
80183;SDS011;69682;52.138;5.440;2024-01-30T09:12:07;9.10;;;4.60;;
80183;SDS011;69682;52.138;5.440;2024-01-30T09:14:36;13.18;;;4.97;;
80183;SDS011;69682;52.138;5.440;2024-01-30T09:17:03;15.15;;;5.05;;
80183;SDS011;69682;52.138;5.440;2024-01-30T09:19:30;11.65;;;5.15;;
80183;SDS011;69682;52.138;5.440;2024-01-30T09:22:00;9.68;;;4.63;;
80183;SDS011;69682;52.138;5.440;2024-01-30T09:24:26;10.27;;;5.15;;
80183;SDS011;69682;52.138;5.440;2024-01-30T09:26:54;6.25;;;3.42;;
80183;SDS011;69682;52.138;5.440;2024-01-30T09:29:21;9.05;;;4.65;;
80183;SDS011;69682;52.138;5.440;2024-01-30T09:31:48;13.88;;;6.03;;
80183;SDS011;69682;52.138;5.440;2024-01-30T09:34:14;9.45;;;4.47;;
80183;SDS011;69682;52.138;5.440;2024-01-30T09:36:41;9.55;;;4.75;;
80183;SDS011;69682;52.138;5.440;2024-01-30T09:39:08;9.13;;;5.45;;
80183;SDS011;69682;52.138;5.440;2024-01-30T09:41:37;6.43;;;3.28;;
80183;SDS011;69682;52.138;5.440;2024-01-30T09:46:43;7.88;;;4.25;;
80183;SDS011;69682;52.138;5.440;2024-01-30T09:49:13;4.55;;;3.10;;
80183;SDS011;69682;52.138;5.440;2024-01-30T09:51:42;12.52;;;5.18;;
80183;SDS011;69682;52.138;5.440;2024-01-30T09:54:10;9.30;;;4.35;;
80183;SDS011;69682;52.138;5.440;2024-01-30T09:56:40;7.80;;;4.30;;
80183;SDS011;69682;52.138;5.440;2024-01-30T09:59:07;9.93;;;5.22;;
80183;SDS011;69682;52.138;5.440;2024-01-30T10:01:34;7.50;;;4.78;;
80183;SDS011;69682;52.138;5.440;2024-01-30T10:04:01;10.65;;;4.82;;
80183;SDS011;69682;52.138;5.440;2024-01-30T10:06:28;9.32;;;5.32;;
80183;SDS011;69682;52.138;5.440;2024-01-30T10:08:55;9.15;;;4.72;;
80183;SDS011;69682;52.138;5.440;2024-01-30T10:11:21;11.00;;;5.50;;
80183;SDS011;69682;52.138;5.440;2024-01-30T10:13:50;10.30;;;4.30;;
80183;SDS011;69682;52.138;5.440;2024-01-30T10:16:16;10.02;;;4.68;;
80183;SDS011;69682;52.138;5.440;2024-01-30T10:18:43;10.55;;;4.97;;
80183;SDS011;69682;52.138;5.440;2024-01-30T10:21:10;12.27;;;5.20;;
80183;SDS011;69682;52.138;5.440;2024-01-30T10:23:37;10.57;;;4.82;;
80183;SDS011;69682;52.138;5.440;2024-01-30T10:26:04;8.65;;;4.68;;
80183;SDS011;69682;52.138;5.440;2024-01-30T10:28:31;9.75;;;4.60;;
80183;SDS011;69682;52.138;5.440;2024-01-30T10:30:58;11.88;;;3.88;;
80183;SDS011;69682;52.138;5.440;2024-01-30T10:33:30;10.75;;;4.50;;
80183;SDS011;69682;52.138;5.440;2024-01-30T10:36:01;9.10;;;4.95;;
80183;SDS011;69682;52.138;5.440;2024-01-30T10:38:29;7.03;;;3.55;;
80183;SDS011;69682;52.138;5.440;2024-01-30T10:40:57;7.90;;;4.85;;
80183;SDS011;69682;52.138;5.440;2024-01-30T10:43:31;7.28;;;3.88;;
80183;SDS011;69682;52.138;5.440;2024-01-30T10:46:18;9.05;;;3.90;;
80183;SDS011;69682;52.138;5.440;2024-01-30T10:48:57;9.20;;;4.82;;
80183;SDS011;69682;52.138;5.440;2024-01-30T10:51:27;8.75;;;5.03;;
80183;SDS011;69682;52.138;5.440;2024-01-30T10:53:55;14.70;;;4.40;;
80183;SDS011;69682;52.138;5.440;2024-01-30T10:56:24;3.05;;;2.13;;
80183;SDS011;69682;52.138;5.440;2024-01-30T10:58:51;11.52;;;4.15;;
80183;SDS011;69682;52.138;5.440;2024-01-30T11:01:22;8.23;;;3.97;;
80183;SDS011;69682;52.138;5.440;2024-01-30T11:03:53;5.20;;;3.03;;
80183;SDS011;69682;52.138;5.440;2024-01-30T11:06:24;9.43;;;3.78;;
80183;SDS011;69682;52.138;5.440;2024-01-30T11:09:04;9.13;;;4.00;;
80183;SDS011;69682;52.138;5.440;2024-01-30T11:11:55;6.18;;;4.38;;
80183;SDS011;69682;52.138;5.440;2024-01-30T11:14:29;7.45;;;3.83;;
80183;SDS011;69682;52.138;5.440;2024-01-30T11:16:57;5.60;;;3.70;;
80183;SDS011;69682;52.138;5.440;2024-01-30T11:19:25;6.15;;;3.53;;
80183;SDS011;69682;52.138;5.440;2024-01-30T11:24:20;7.07;;;3.95;;
80183;SDS011;69682;52.138;5.440;2024-01-30T11:26:55;7.65;;;4.15;;
80183;SDS011;69682;52.138;5.440;2024-01-30T11:29:29;10.95;;;4.80;;
80183;SDS011;69682;52.138;5.440;2024-01-30T11:31:57;8.98;;;2.67;;
80183;SDS011;69682;52.138;5.440;2024-01-30T11:34:25;7.43;;;4.07;;
80183;SDS011;69682;52.138;5.440;2024-01-30T11:36:56;5.35;;;3.08;;
80183;SDS011;69682;52.138;5.440;2024-01-30T11:39:25;2.70;;;1.73;;
80183;SDS011;69682;52.138;5.440;2024-01-30T11:41:53;5.15;;;2.30;;
80183;SDS011;69682;52.138;5.440;2024-01-30T11:44:20;9.30;;;1.83;;
80183;SDS011;69682;52.138;5.440;2024-01-30T11:46:48;2.83;;;2.03;;
80183;SDS011;69682;52.138;5.440;2024-01-30T11:49:15;4.85;;;2.00;;
80183;SDS011;69682;52.138;5.440;2024-01-30T11:51:54;1.98;;;0.85;;
80183;SDS011;69682;52.138;5.440;2024-01-30T11:54:21;4.57;;;1.58;;
80183;SDS011;69682;52.138;5.440;2024-01-30T11:56:47;2.05;;;1.40;;
80183;SDS011;69682;52.138;5.440;2024-01-30T11:59:14;4.38;;;1.10;;
80183;SDS011;69682;52.138;5.440;2024-01-30T12:01:40;3.67;;;1.00;;
80183;SDS011;69682;52.138;5.440;2024-01-30T12:04:07;4.82;;;0.90;;
80183;SDS011;69682;52.138;5.440;2024-01-30T12:06:36;2.42;;;1.20;;
80183;SDS011;69682;52.138;5.440;2024-01-30T12:09:04;2.15;;;1.10;;
80183;SDS011;69682;52.138;5.440;2024-01-30T12:11:30;3.72;;;0.98;;
80183;SDS011;69682;52.138;5.440;2024-01-30T12:13:57;3.97;;;0.70;;
80183;SDS011;69682;52.138;5.440;2024-01-30T12:16:24;2.55;;;0.90;;
80183;SDS011;69682;52.138;5.440;2024-01-30T12:18:58;1.83;;;1.00;;
80183;SDS011;69682;52.138;5.440;2024-01-30T12:23:52;4.25;;;1.02;;
80183;SDS011;69682;52.138;5.440;2024-01-30T12:26:23;2.75;;;1.13;;
80183;SDS011;69682;52.138;5.440;2024-01-30T12:28:50;1.25;;;0.85;;
80183;SDS011;69682;52.138;5.440;2024-01-30T12:31:17;2.13;;;1.05;;
80183;SDS011;69682;52.138;5.440;2024-01-30T12:33:43;3.70;;;1.60;;
80183;SDS011;69682;52.138;5.440;2024-01-30T12:36:11;4.78;;;1.80;;
80183;SDS011;69682;52.138;5.440;2024-01-30T12:38:38;7.20;;;1.90;;
80183;SDS011;69682;52.138;5.440;2024-01-30T12:41:06;5.88;;;2.10;;
80183;SDS011;69682;52.138;5.440;2024-01-30T12:43:33;3.40;;;1.60;;
80183;SDS011;69682;52.138;5.440;2024-01-30T12:46:05;5.43;;;1.88;;
80183;SDS011;69682;52.138;5.440;2024-01-30T12:48:32;2.47;;;1.63;;
80183;SDS011;69682;52.138;5.440;2024-01-30T12:50:59;2.58;;;1.83;;
80183;SDS011;69682;52.138;5.440;2024-01-30T12:53:26;3.45;;;1.48;;
80183;SDS011;69682;52.138;5.440;2024-01-30T12:55:53;7.15;;;2.15;;
80183;SDS011;69682;52.138;5.440;2024-01-30T12:58:20;1.67;;;1.20;;
80183;SDS011;69682;52.138;5.440;2024-01-30T13:00:47;7.03;;;2.40;;
80183;SDS011;69682;52.138;5.440;2024-01-30T13:03:14;3.95;;;1.50;;
80183;SDS011;69682;52.138;5.440;2024-01-30T13:05:41;4.80;;;2.03;;
80183;SDS011;69682;52.138;5.440;2024-01-30T13:08:08;4.68;;;1.02;;
80183;SDS011;69682;52.138;5.440;2024-01-30T13:10:35;4.05;;;2.00;;
80183;SDS011;69682;52.138;5.440;2024-01-30T13:13:02;3.70;;;1.75;;
80183;SDS011;69682;52.138;5.440;2024-01-30T13:15:28;2.47;;;2.28;;
80183;SDS011;69682;52.138;5.440;2024-01-30T13:17:55;4.35;;;1.45;;
80183;SDS011;69682;52.138;5.440;2024-01-30T13:20:22;2.53;;;1.45;;
80183;SDS011;69682;52.138;5.440;2024-01-30T13:22:48;1.77;;;1.15;;
80183;SDS011;69682;52.138;5.440;2024-01-30T13:25:16;2.13;;;1.13;;
80183;SDS011;69682;52.138;5.440;2024-01-30T13:27:43;3.05;;;1.13;;
80183;SDS011;69682;52.138;5.440;2024-01-30T13:30:10;1.13;;;0.98;;
80183;SDS011;69682;52.138;5.440;2024-01-30T13:32:36;1.77;;;0.80;;
80183;SDS011;69682;52.138;5.440;2024-01-30T13:35:04;5.60;;;0.90;;
80183;SDS011;69682;52.138;5.440;2024-01-30T13:37:31;0.63;;;0.63;;
80183;SDS011;69682;52.138;5.440;2024-01-30T13:39:57;1.80;;;0.75;;
80183;SDS011;69682;52.138;5.440;2024-01-30T13:42:24;0.98;;;0.60;;
80183;SDS011;69682;52.138;5.440;2024-01-30T13:44:51;1.33;;;0.60;;
80183;SDS011;69682;52.138;5.440;2024-01-30T13:47:17;4.05;;;1.13;;
80183;SDS011;69682;52.138;5.440;2024-01-30T13:49:45;1.17;;;0.55;;
80183;SDS011;69682;52.138;5.440;2024-01-30T13:52:12;0.50;;;0.43;;
80183;SDS011;69682;52.138;5.440;2024-01-30T13:54:40;3.22;;;1.17;;
80183;SDS011;69682;52.138;5.440;2024-01-30T13:57:07;1.48;;;1.33;;
80183;SDS011;69682;52.138;5.440;2024-01-30T13:59:35;2.60;;;1.30;;
80183;SDS011;69682;52.138;5.440;2024-01-30T14:02:01;3.70;;;0.77;;
80183;SDS011;69682;52.138;5.440;2024-01-30T14:04:28;0.75;;;0.40;;
80183;SDS011;69682;52.138;5.440;2024-01-30T14:06:55;3.35;;;1.20;;
80183;SDS011;69682;52.138;5.440;2024-01-30T14:09:30;0.65;;;0.50;;
80183;SDS011;69682;52.138;5.440;2024-01-30T14:11:58;1.58;;;0.80;;
80183;SDS011;69682;52.138;5.440;2024-01-30T14:14:25;4.35;;;1.45;;
80183;SDS011;69682;52.138;5.440;2024-01-30T14:16:51;1.80;;;0.40;;
80183;SDS011;69682;52.138;5.440;2024-01-30T14:19:18;2.63;;;0.80;;
80183;SDS011;69682;52.138;5.440;2024-01-30T14:21:45;2.05;;;0.95;;
80183;SDS011;69682;52.138;5.440;2024-01-30T14:24:11;2.05;;;0.65;;
80183;SDS011;69682;52.138;5.440;2024-01-30T14:26:38;2.35;;;0.80;;
80183;SDS011;69682;52.138;5.440;2024-01-30T14:29:04;2.17;;;1.00;;
80183;SDS011;69682;52.138;5.440;2024-01-30T14:31:31;0.43;;;0.43;;
80183;SDS011;69682;52.138;5.440;2024-01-30T14:33:57;6.05;;;0.90;;
80183;SDS011;69682;52.138;5.440;2024-01-30T14:36:25;2.47;;;0.80;;
80183;SDS011;69682;52.138;5.440;2024-01-30T14:38:54;1.65;;;0.90;;
80183;SDS011;69682;52.138;5.440;2024-01-30T14:41:21;1.55;;;0.95;;
80183;SDS011;69682;52.138;5.440;2024-01-30T14:43:47;1.23;;;0.77;;
80183;SDS011;69682;52.138;5.440;2024-01-30T14:46:14;1.88;;;0.93;;
80183;SDS011;69682;52.138;5.440;2024-01-30T14:48:41;2.25;;;0.68;;
80183;SDS011;69682;52.138;5.440;2024-01-30T14:51:08;2.05;;;0.80;;
80183;SDS011;69682;52.138;5.440;2024-01-30T14:53:34;1.00;;;0.80;;